Weather at London Heathrow Airport

Public forecast

Using degrees Celsius for public forecast. Weather courtesy of forecast.io.

Current aviation weather report (METAR) for London Heathrow Airport

Retrieved 2021/03/04 10:20 UTC (2 hours ago):

EGLL 041020Z AUTO 03005KT 340V060 6000 BKN007 OVC012 04/03 Q1025 BECMG BKN012

Aviation forecast (TAF) for London Heathrow Airport

Forecast is more than 6 hours old.

Retrieved 2021/03/04 06:00 UTC (6 hours ago):

TAF EGLL 040504Z 0406/0512 02005KT 4000 BR OVC003 BECMG 0406/0409 8000 NSW BKN010 TEMPO 0406/0409 1400 RADZ BECMG 0409/0412 9999 SCT020 PROB40 TEMPO 0409/0415 4000 -RADZ PROB30 TEMPO 0418/0421 7000 SHRA BKN014